sensor_id;sensor_type;location;lat;lon;timestamp;temperature;humidity
13052;DHT22;6592;47.484;9.726;2023-04-03T00:02:11;8.70;99.90
13052;DHT22;6592;47.484;9.726;2023-04-03T00:04:42;8.60;99.90
13052;DHT22;6592;47.484;9.726;2023-04-03T00:07:11;8.70;99.90
13052;DHT22;6592;47.484;9.726;2023-04-03T00:09:41;8.70;99.90
13052;DHT22;6592;47.484;9.726;2023-04-03T00:12:10;8.70;99.90
13052;DHT22;6592;47.484;9.726;2023-04-03T00:14:39;8.60;99.90
13052;DHT22;6592;47.484;9.726;2023-04-03T00:17:07;8.60;99.90
13052;DHT22;6592;47.484;9.726;2023-04-03T00:19:36;7.60;99.90
13052;DHT22;6592;47.484;9.726;2023-04-03T00:22:06;8.40;99.90
13052;DHT22;6592;47.484;9.726;2023-04-03T00:24:35;8.40;99.90
13052;DHT22;6592;47.484;9.726;2023-04-03T00:27:04;8.40;99.90
13052;DHT22;6592;47.484;9.726;2023-04-03T00:29:32;8.40;99.90
13052;DHT22;6592;47.484;9.726;2023-04-03T00:32:01;8.40;99.90
13052;DHT22;6592;47.484;9.726;2023-04-03T00:34:30;8.40;99.90
13052;DHT22;6592;47.484;9.726;2023-04-03T00:36:59;8.40;99.90
13052;DHT22;6592;47.484;9.726;2023-04-03T00:39:29;8.40;99.90
13052;DHT22;6592;47.484;9.726;2023-04-03T00:41:59;7.70;99.90
13052;DHT22;6592;47.484;9.726;2023-04-03T00:47:30;8.10;99.90
13052;DHT22;6592;47.484;9.726;2023-04-03T00:49:59;8.10;99.90
13052;DHT22;6592;47.484;9.726;2023-04-03T00:52:30;8.10;99.90
13052;DHT22;6592;47.484;9.726;2023-04-03T00:55:04;8.10;99.90
13052;DHT22;6592;47.484;9.726;2023-04-03T00:57:34;8.50;99.90
13052;DHT22;6592;47.484;9.726;2023-04-03T01:00:10;8.00;99.90
13052;DHT22;6592;47.484;9.726;2023-04-03T01:02:44;7.10;99.90
13052;DHT22;6592;47.484;9.726;2023-04-03T01:05:15;7.90;99.90
13052;DHT22;6592;47.484;9.726;2023-04-03T01:07:47;7.70;99.90
13052;DHT22;6592;47.484;9.726;2023-04-03T01:10:20;7.70;99.90
13052;DHT22;6592;47.484;9.726;2023-04-03T01:12:51;7.70;99.90
13052;DHT22;6592;47.484;9.726;2023-04-03T01:15:24;7.60;99.90
13052;DHT22;6592;47.484;9.726;2023-04-03T01:17:55;7.60;99.90
13052;DHT22;6592;47.484;9.726;2023-04-03T01:23:46;7.60;99.90
13052;DHT22;6592;47.484;9.726;2023-04-03T01:26:21;7.60;99.90
13052;DHT22;6592;47.484;9.726;2023-04-03T01:28:50;7.50;99.90
13052;DHT22;6592;47.484;9.726;2023-04-03T01:31:23;7.50;99.90
13052;DHT22;6592;47.484;9.726;2023-04-03T01:33:55;7.40;99.90
13052;DHT22;6592;47.484;9.726;2023-04-03T01:36:27;7.40;99.90
13052;DHT22;6592;47.484;9.726;2023-04-03T01:38:57;7.40;99.90
13052;DHT22;6592;47.484;9.726;2023-04-03T01:41:27;7.20;99.90
13052;DHT22;6592;47.484;9.726;2023-04-03T01:43:56;7.10;99.90
13052;DHT22;6592;47.484;9.726;2023-04-03T01:46:27;7.00;99.90
13052;DHT22;6592;47.484;9.726;2023-04-03T01:48:58;7.00;99.90
13052;DHT22;6592;47.484;9.726;2023-04-03T01:51:27;7.00;99.90
13052;DHT22;6592;47.484;9.726;2023-04-03T01:53:56;6.90;99.90
13052;DHT22;6592;47.484;9.726;2023-04-03T01:56:25;5.80;99.90
13052;DHT22;6592;47.484;9.726;2023-04-03T01:58:54;6.60;99.90
13052;DHT22;6592;47.484;9.726;2023-04-03T02:01:24;6.60;99.90
13052;DHT22;6592;47.484;9.726;2023-04-03T02:03:53;6.40;99.90
13052;DHT22;6592;47.484;9.726;2023-04-03T02:06:23;6.30;99.90
13052;DHT22;6592;47.484;9.726;2023-04-03T02:08:53;6.30;99.90
13052;DHT22;6592;47.484;9.726;2023-04-03T02:11:24;6.30;99.90
13052;DHT22;6592;47.484;9.726;2023-04-03T02:13:53;6.30;99.90
13052;DHT22;6592;47.484;9.726;2023-04-03T02:16:22;6.20;99.90
13052;DHT22;6592;47.484;9.726;2023-04-03T02:18:52;6.20;99.90
13052;DHT22;6592;47.484;9.726;2023-04-03T02:21:23;6.20;99.90
13052;DHT22;6592;47.484;9.726;2023-04-03T02:23:52;6.10;99.90
13052;DHT22;6592;47.484;9.726;2023-04-03T02:26:22;6.20;99.90
13052;DHT22;6592;47.484;9.726;2023-04-03T02:28:52;6.00;99.90
13052;DHT22;6592;47.484;9.726;2023-04-03T02:31:21;6.10;99.90
13052;DHT22;6592;47.484;9.726;2023-04-03T02:33:51;6.10;99.90
13052;DHT22;6592;47.484;9.726;2023-04-03T02:36:26;6.20;99.90
13052;DHT22;6592;47.484;9.726;2023-04-03T02:38:58;6.20;99.90
13052;DHT22;6592;47.484;9.726;2023-04-03T02:41:28;6.20;99.90
13052;DHT22;6592;47.484;9.726;2023-04-03T02:44:03;6.10;99.90
13052;DHT22;6592;47.484;9.726;2023-04-03T02:46:35;6.10;99.90
13052;DHT22;6592;47.484;9.726;2023-04-03T02:49:04;6.10;99.90
13052;DHT22;6592;47.484;9.726;2023-04-03T02:51:38;6.10;99.90
13052;DHT22;6592;47.484;9.726;2023-04-03T02:54:07;6.10;99.90
13052;DHT22;6592;47.484;9.726;2023-04-03T02:56:36;6.10;99.90
13052;DHT22;6592;47.484;9.726;2023-04-03T02:59:04;6.00;99.90
13052;DHT22;6592;47.484;9.726;2023-04-03T03:01:33;5.90;99.90
13052;DHT22;6592;47.484;9.726;2023-04-03T03:04:03;5.90;99.90
13052;DHT22;6592;47.484;9.726;2023-04-03T03:06:35;5.80;99.90
13052;DHT22;6592;47.484;9.726;2023-04-03T03:09:07;5.90;99.90
13052;DHT22;6592;47.484;9.726;2023-04-03T03:11:36;5.80;99.90
13052;DHT22;6592;47.484;9.726;2023-04-03T03:14:06;5.80;99.90
13052;DHT22;6592;47.484;9.726;2023-04-03T03:16:35;5.70;99.90
13052;DHT22;6592;47.484;9.726;2023-04-03T03:19:04;5.70;99.90
13052;DHT22;6592;47.484;9.726;2023-04-03T03:21:33;5.70;99.90
13052;DHT22;6592;47.484;9.726;2023-04-03T03:24:13;5.70;99.90
13052;DHT22;6592;47.484;9.726;2023-04-03T03:26:43;5.60;99.90
13052;DHT22;6592;47.484;9.726;2023-04-03T03:29:12;5.50;99.90
13052;DHT22;6592;47.484;9.726;2023-04-03T03:31:41;5.50;99.90
13052;DHT22;6592;47.484;9.726;2023-04-03T03:34:10;5.50;99.90
13052;DHT22;6592;47.484;9.726;2023-04-03T03:36:40;5.50;99.90
13052;DHT22;6592;47.484;9.726;2023-04-03T03:39:12;5.40;99.90
13052;DHT22;6592;47.484;9.726;2023-04-03T03:41:41;5.30;99.90
13052;DHT22;6592;47.484;9.726;2023-04-03T03:44:12;5.30;99.90
13052;DHT22;6592;47.484;9.726;2023-04-03T03:46:42;5.30;99.90
13052;DHT22;6592;47.484;9.726;2023-04-03T03:49:11;4.40;99.90
13052;DHT22;6592;47.484;9.726;2023-04-03T03:51:41;5.30;99.90
13052;DHT22;6592;47.484;9.726;2023-04-03T03:54:13;5.30;99.90
13052;DHT22;6592;47.484;9.726;2023-04-03T03:56:45;5.30;99.90
13052;DHT22;6592;47.484;9.726;2023-04-03T03:59:14;5.30;99.90
13052;DHT22;6592;47.484;9.726;2023-04-03T04:01:43;5.30;99.90
13052;DHT22;6592;47.484;9.726;2023-04-03T04:04:12;5.30;99.90
13052;DHT22;6592;47.484;9.726;2023-04-03T04:06:42;5.30;99.90
13052;DHT22;6592;47.484;9.726;2023-04-03T04:09:15;5.30;99.90
13052;DHT22;6592;47.484;9.726;2023-04-03T04:11:45;5.30;99.90
13052;DHT22;6592;47.484;9.726;2023-04-03T04:14:16;5.30;99.90
13052;DHT22;6592;47.484;9.726;2023-04-03T04:16:45;5.40;99.90
13052;DHT22;6592;47.484;9.726;2023-04-03T04:19:14;4.50;99.90
13052;DHT22;6592;47.484;9.726;2023-04-03T04:21:44;5.50;99.90
13052;DHT22;6592;47.484;9.726;2023-04-03T04:24:17;5.50;99.90
13052;DHT22;6592;47.484;9.726;2023-04-03T04:26:48;5.50;99.90
13052;DHT22;6592;47.484;9.726;2023-04-03T04:29:20;5.50;99.90
13052;DHT22;6592;47.484;9.726;2023-04-03T04:31:49;5.50;99.90
13052;DHT22;6592;47.484;9.726;2023-04-03T04:34:19;5.50;99.90
13052;DHT22;6592;47.484;9.726;2023-04-03T04:36:47;5.60;99.90
13052;DHT22;6592;47.484;9.726;2023-04-03T04:39:20;5.50;99.90
13052;DHT22;6592;47.484;9.726;2023-04-03T04:41:51;5.30;99.90
13052;DHT22;6592;47.484;9.726;2023-04-03T04:44:21;5.50;99.90
13052;DHT22;6592;47.484;9.726;2023-04-03T04:46:53;5.50;99.90
13052;DHT22;6592;47.484;9.726;2023-04-03T04:49:23;5.50;99.90
13052;DHT22;6592;47.484;9.726;2023-04-03T04:51:54;5.60;99.90
13052;DHT22;6592;47.484;9.726;2023-04-03T04:54:26;5.60;99.90
13052;DHT22;6592;47.484;9.726;2023-04-03T04:56:55;5.50;99.90
13052;DHT22;6592;47.484;9.726;2023-04-03T04:59:25;5.60;99.90
13052;DHT22;6592;47.484;9.726;2023-04-03T05:01:55;5.60;99.90
13052;DHT22;6592;47.484;9.726;2023-04-03T05:04:24;5.60;99.90
13052;DHT22;6592;47.484;9.726;2023-04-03T05:06:53;5.60;99.90
13052;DHT22;6592;47.484;9.726;2023-04-03T05:09:28;5.60;99.90
13052;DHT22;6592;47.484;9.726;2023-04-03T05:11:57;5.60;99.90
13052;DHT22;6592;47.484;9.726;2023-04-03T05:14:27;5.60;99.90
13052;DHT22;6592;47.484;9.726;2023-04-03T05:16:56;5.60;99.90
13052;DHT22;6592;47.484;9.726;2023-04-03T05:19:26;5.60;99.90
13052;DHT22;6592;47.484;9.726;2023-04-03T05:21:55;5.60;99.90
13052;DHT22;6592;47.484;9.726;2023-04-03T05:24:31;5.60;99.90
13052;DHT22;6592;47.484;9.726;2023-04-03T05:27:01;5.70;99.90
13052;DHT22;6592;47.484;9.726;2023-04-03T05:29:32;5.20;99.90
13052;DHT22;6592;47.484;9.726;2023-04-03T05:32:03;5.60;99.90
13052;DHT22;6592;47.484;9.726;2023-04-03T05:34:33;5.60;99.90
13052;DHT22;6592;47.484;9.726;2023-04-03T05:37:03;5.60;99.90
13052;DHT22;6592;47.484;9.726;2023-04-03T05:39:37;5.60;99.90
13052;DHT22;6592;47.484;9.726;2023-04-03T05:42:09;5.50;99.90
13052;DHT22;6592;47.484;9.726;2023-04-03T05:44:38;5.50;99.90
13052;DHT22;6592;47.484;9.726;2023-04-03T05:47:07;5.60;99.90
13052;DHT22;6592;47.484;9.726;2023-04-03T05:49:36;5.50;99.90
13052;DHT22;6592;47.484;9.726;2023-04-03T05:52:17;5.50;99.90
13052;DHT22;6592;47.484;9.726;2023-04-03T05:54:51;5.50;99.90
13052;DHT22;6592;47.484;9.726;2023-04-03T05:57:21;5.50;99.90
13052;DHT22;6592;47.484;9.726;2023-04-03T05:59:50;5.50;99.90
13052;DHT22;6592;47.484;9.726;2023-04-03T06:02:21;5.50;99.90
13052;DHT22;6592;47.484;9.726;2023-04-03T06:04:53;5.50;99.90
13052;DHT22;6592;47.484;9.726;2023-04-03T06:07:24;5.50;99.90
13052;DHT22;6592;47.484;9.726;2023-04-03T06:09:57;5.60;99.90
13052;DHT22;6592;47.484;9.726;2023-04-03T06:12:26;5.60;99.90
13052;DHT22;6592;47.484;9.726;2023-04-03T06:14:56;5.70;99.90
13052;DHT22;6592;47.484;9.726;2023-04-03T06:17:25;5.70;99.90
13052;DHT22;6592;47.484;9.726;2023-04-03T06:19:54;5.70;99.90
13052;DHT22;6592;47.484;9.726;2023-04-03T06:22:24;5.70;99.90
13052;DHT22;6592;47.484;9.726;2023-04-03T06:24:59;5.80;99.90
13052;DHT22;6592;47.484;9.726;2023-04-03T06:27:28;5.80;99.90
13052;DHT22;6592;47.484;9.726;2023-04-03T06:29:59;5.90;99.90
13052;DHT22;6592;47.484;9.726;2023-04-03T06:32:28;5.90;99.90
13052;DHT22;6592;47.484;9.726;2023-04-03T06:34:57;6.00;99.90
13052;DHT22;6592;47.484;9.726;2023-04-03T06:37:28;6.00;99.90
13052;DHT22;6592;47.484;9.726;2023-04-03T06:39:59;6.10;99.90
13052;DHT22;6592;47.484;9.726;2023-04-03T06:42:28;6.10;99.90
13052;DHT22;6592;47.484;9.726;2023-04-03T06:44:58;6.10;99.90
13052;DHT22;6592;47.484;9.726;2023-04-03T06:47:29;6.10;99.90
13052;DHT22;6592;47.484;9.726;2023-04-03T06:50:01;6.10;99.90
13052;DHT22;6592;47.484;9.726;2023-04-03T06:52:30;6.10;99.90
13052;DHT22;6592;47.484;9.726;2023-04-03T06:55:00;6.20;99.90
13052;DHT22;6592;47.484;9.726;2023-04-03T06:57:29;6.20;99.90
13052;DHT22;6592;47.484;9.726;2023-04-03T07:00:13;6.20;99.90
13052;DHT22;6592;47.484;9.726;2023-04-03T07:02:43;6.20;99.90
13052;DHT22;6592;47.484;9.726;2023-04-03T07:05:12;6.20;99.90
13052;DHT22;6592;47.484;9.726;2023-04-03T07:07:41;6.20;99.90
13052;DHT22;6592;47.484;9.726;2023-04-03T07:10:12;6.20;99.90
13052;DHT22;6592;47.484;9.726;2023-04-03T07:12:41;6.30;99.90
13052;DHT22;6592;47.484;9.726;2023-04-03T07:15:10;6.20;99.90
13052;DHT22;6592;47.484;9.726;2023-04-03T07:17:40;6.30;99.90
13052;DHT22;6592;47.484;9.726;2023-04-03T07:20:09;6.30;99.90
13052;DHT22;6592;47.484;9.726;2023-04-03T07:22:37;6.40;99.90
13052;DHT22;6592;47.484;9.726;2023-04-03T07:25:07;6.40;99.90
13052;DHT22;6592;47.484;9.726;2023-04-03T07:27:41;6.50;99.90
13052;DHT22;6592;47.484;9.726;2023-04-03T07:30:13;6.50;99.90
13052;DHT22;6592;47.484;9.726;2023-04-03T07:32:42;6.50;99.90
13052;DHT22;6592;47.484;9.726;2023-04-03T07:35:13;6.30;99.90
13052;DHT22;6592;47.484;9.726;2023-04-03T07:37:44;6.40;99.90
13052;DHT22;6592;47.484;9.726;2023-04-03T07:40:13;6.40;99.90
13052;DHT22;6592;47.484;9.726;2023-04-03T07:42:43;6.40;99.90
13052;DHT22;6592;47.484;9.726;2023-04-03T07:45:12;5.30;99.90
13052;DHT22;6592;47.484;9.726;2023-04-03T07:47:40;5.70;99.90
13052;DHT22;6592;47.484;9.726;2023-04-03T07:50:10;6.60;99.90
13052;DHT22;6592;47.484;9.726;2023-04-03T07:52:38;6.50;99.90
13052;DHT22;6592;47.484;9.726;2023-04-03T07:55:08;6.50;99.90
13052;DHT22;6592;47.484;9.726;2023-04-03T07:57:38;6.60;99.90
13052;DHT22;6592;47.484;9.726;2023-04-03T08:00:10;6.60;99.90
13052;DHT22;6592;47.484;9.726;2023-04-03T08:02:38;6.60;99.90
13052;DHT22;6592;47.484;9.726;2023-04-03T08:05:10;6.70;99.90
13052;DHT22;6592;47.484;9.726;2023-04-03T08:07:38;6.70;99.90
13052;DHT22;6592;47.484;9.726;2023-04-03T08:10:08;6.70;99.90
13052;DHT22;6592;47.484;9.726;2023-04-03T08:12:37;6.80;99.90
13052;DHT22;6592;47.484;9.726;2023-04-03T08:15:11;6.70;99.90
13052;DHT22;6592;47.484;9.726;2023-04-03T08:17:40;6.70;99.90
13052;DHT22;6592;47.484;9.726;2023-04-03T08:20:10;5.80;99.90
13052;DHT22;6592;47.484;9.726;2023-04-03T08:22:42;6.80;99.90
13052;DHT22;6592;47.484;9.726;2023-04-03T08:25:10;6.80;99.90
13052;DHT22;6592;47.484;9.726;2023-04-03T08:27:39;6.80;99.90
13052;DHT22;6592;47.484;9.726;2023-04-03T08:30:10;6.90;99.90
13052;DHT22;6592;47.484;9.726;2023-04-03T08:32:38;6.90;99.90
13052;DHT22;6592;47.484;9.726;2023-04-03T08:35:09;7.00;99.90
13052;DHT22;6592;47.484;9.726;2023-04-03T08:37:39;7.00;99.90
13052;DHT22;6592;47.484;9.726;2023-04-03T08:40:13;7.10;99.90
13052;DHT22;6592;47.484;9.726;2023-04-03T08:42:59;7.10;99.90
13052;DHT22;6592;47.484;9.726;2023-04-03T08:45:42;7.30;99.90
13052;DHT22;6592;47.484;9.726;2023-04-03T08:48:15;7.30;99.90
13052;DHT22;6592;47.484;9.726;2023-04-03T08:50:47;7.30;99.90
13052;DHT22;6592;47.484;9.726;2023-04-03T08:53:21;7.30;99.90
13052;DHT22;6592;47.484;9.726;2023-04-03T08:55:51;7.50;99.90
13052;DHT22;6592;47.484;9.726;2023-04-03T08:58:23;7.40;99.90
13052;DHT22;6592;47.484;9.726;2023-04-03T09:00:58;6.80;99.90
13052;DHT22;6592;47.484;9.726;2023-04-03T09:03:30;7.60;99.90
13052;DHT22;6592;47.484;9.726;2023-04-03T09:06:00;7.70;99.90
13052;DHT22;6592;47.484;9.726;2023-04-03T09:08:33;7.50;99.90
13052;DHT22;6592;47.484;9.726;2023-04-03T09:11:12;7.80;99.90
13052;DHT22;6592;47.484;9.726;2023-04-03T09:13:49;7.90;99.90
13052;DHT22;6592;47.484;9.726;2023-04-03T09:16:43;8.00;99.90
13052;DHT22;6592;47.484;9.726;2023-04-03T09:19:23;8.20;99.90
13052;DHT22;6592;47.484;9.726;2023-04-03T09:21:57;8.30;99.90
13052;DHT22;6592;47.484;9.726;2023-04-03T09:24:26;8.50;99.90
13052;DHT22;6592;47.484;9.726;2023-04-03T09:26:58;8.60;99.90
13052;DHT22;6592;47.484;9.726;2023-04-03T09:29:27;8.80;99.90
13052;DHT22;6592;47.484;9.726;2023-04-03T09:32:00;8.30;99.90
13052;DHT22;6592;47.484;9.726;2023-04-03T09:34:36;8.80;99.90
13052;DHT22;6592;47.484;9.726;2023-04-03T09:37:05;8.80;99.90
13052;DHT22;6592;47.484;9.726;2023-04-03T09:39:50;8.80;99.90
13052;DHT22;6592;47.484;9.726;2023-04-03T09:42:20;8.80;99.90
13052;DHT22;6592;47.484;9.726;2023-04-03T09:44:55;8.80;99.90
13052;DHT22;6592;47.484;9.726;2023-04-03T09:47:27;8.70;99.90
13052;DHT22;6592;47.484;9.726;2023-04-03T09:50:19;8.90;99.90
13052;DHT22;6592;47.484;9.726;2023-04-03T09:52:51;9.20;99.90
13052;DHT22;6592;47.484;9.726;2023-04-03T09:55:21;9.40;99.90
13052;DHT22;6592;47.484;9.726;2023-04-03T09:57:54;9.50;99.90
13052;DHT22;6592;47.484;9.726;2023-04-03T10:00:25;9.70;99.90
13052;DHT22;6592;47.484;9.726;2023-04-03T10:02:57;9.70;99.90
13052;DHT22;6592;47.484;9.726;2023-04-03T10:05:36;9.70;99.90
13052;DHT22;6592;47.484;9.726;2023-04-03T10:08:11;9.70;99.90
13052;DHT22;6592;47.484;9.726;2023-04-03T10:10:47;9.70;99.90
13052;DHT22;6592;47.484;9.726;2023-04-03T10:13:18;9.80;99.90
13052;DHT22;6592;47.484;9.726;2023-04-03T10:15:50;9.90;99.90
13052;DHT22;6592;47.484;9.726;2023-04-03T10:18:29;10.10;99.90
13052;DHT22;6592;47.484;9.726;2023-04-03T10:21:04;10.20;99.90
13052;DHT22;6592;47.484;9.726;2023-04-03T10:23:55;10.30;99.90
13052;DHT22;6592;47.484;9.726;2023-04-03T10:26:37;10.20;99.90
13052;DHT22;6592;47.484;9.726;2023-04-03T10:29:18;10.00;99.90
13052;DHT22;6592;47.484;9.726;2023-04-03T10:31:59;10.40;99.90
13052;DHT22;6592;47.484;9.726;2023-04-03T10:34:39;10.50;99.90
13052;DHT22;6592;47.484;9.726;2023-04-03T10:37:26;10.60;99.90
13052;DHT22;6592;47.484;9.726;2023-04-03T10:40:14;10.10;99.90
13052;DHT22;6592;47.484;9.726;2023-04-03T10:42:48;10.50;99.90
13052;DHT22;6592;47.484;9.726;2023-04-03T10:45:22;10.50;99.90
13052;DHT22;6592;47.484;9.726;2023-04-03T10:48:01;10.50;99.90
13052;DHT22;6592;47.484;9.726;2023-04-03T10:50:46;10.30;99.90
13052;DHT22;6592;47.484;9.726;2023-04-03T10:53:24;10.40;99.90
13052;DHT22;6592;47.484;9.726;2023-04-03T10:56:05;10.50;99.90
13052;DHT22;6592;47.484;9.726;2023-04-03T10:58:40;10.60;99.90
13052;DHT22;6592;47.484;9.726;2023-04-03T11:01:16;10.20;99.90
13052;DHT22;6592;47.484;9.726;2023-04-03T11:03:54;10.30;99.90
13052;DHT22;6592;47.484;9.726;2023-04-03T11:06:39;10.10;99.90
13052;DHT22;6592;47.484;9.726;2023-04-03T11:09:19;10.30;99.90
13052;DHT22;6592;47.484;9.726;2023-04-03T11:11:50;10.30;99.90
13052;DHT22;6592;47.484;9.726;2023-04-03T11:14:26;10.10;99.90
13052;DHT22;6592;47.484;9.726;2023-04-03T11:17:15;10.30;99.90
13052;DHT22;6592;47.484;9.726;2023-04-03T11:19:59;10.40;99.90
13052;DHT22;6592;47.484;9.726;2023-04-03T11:22:34;10.70;99.90
13052;DHT22;6592;47.484;9.726;2023-04-03T11:25:13;11.00;99.90
13052;DHT22;6592;47.484;9.726;2023-04-03T11:27:50;10.80;99.90
13052;DHT22;6592;47.484;9.726;2023-04-03T11:30:22;11.10;99.90
13052;DHT22;6592;47.484;9.726;2023-04-03T11:33:05;11.30;99.90
13052;DHT22;6592;47.484;9.726;2023-04-03T11:35:43;11.20;99.90
13052;DHT22;6592;47.484;9.726;2023-04-03T11:38:21;11.70;99.90
13052;DHT22;6592;47.484;9.726;2023-04-03T11:40:51;12.10;99.90
13052;DHT22;6592;47.484;9.726;2023-04-03T11:43:24;12.30;99.90
13052;DHT22;6592;47.484;9.726;2023-04-03T11:45:56;12.20;99.90
13052;DHT22;6592;47.484;9.726;2023-04-03T11:48:45;12.30;99.90
13052;DHT22;6592;47.484;9.726;2023-04-03T11:54:49;12.20;99.90
13052;DHT22;6592;47.484;9.726;2023-04-03T12:07:12;11.70;99.90
13052;DHT22;6592;47.484;9.726;2023-04-03T12:12:59;11.50;99.90
13052;DHT22;6592;47.484;9.726;2023-04-03T12:15:54;11.30;99.90
13052;DHT22;6592;47.484;9.726;2023-04-03T12:18:42;11.30;99.90
13052;DHT22;6592;47.484;9.726;2023-04-03T12:21:17;11.30;99.90
13052;DHT22;6592;47.484;9.726;2023-04-03T12:27:00;11.40;99.90
13052;DHT22;6592;47.484;9.726;2023-04-03T12:29:47;11.40;99.90
13052;DHT22;6592;47.484;9.726;2023-04-03T12:32:29;11.50;99.90
13052;DHT22;6592;47.484;9.726;2023-04-03T12:35:14;11.50;99.90
13052;DHT22;6592;47.484;9.726;2023-04-03T12:38:05;11.40;99.90
13052;DHT22;6592;47.484;9.726;2023-04-03T12:40:51;11.40;99.90
13052;DHT22;6592;47.484;9.726;2023-04-03T12:43:35;11.50;99.90
13052;DHT22;6592;47.484;9.726;2023-04-03T12:46:15;11.30;99.90
13052;DHT22;6592;47.484;9.726;2023-04-03T12:48:51;11.20;99.90
13052;DHT22;6592;47.484;9.726;2023-04-03T12:51:26;11.40;99.90
13052;DHT22;6592;47.484;9.726;2023-04-03T12:54:04;11.40;99.90
13052;DHT22;6592;47.484;9.726;2023-04-03T12:56:46;11.50;99.90
13052;DHT22;6592;47.484;9.726;2023-04-03T12:59:16;11.40;99.90
13052;DHT22;6592;47.484;9.726;2023-04-03T13:01:57;11.50;99.90
13052;DHT22;6592;47.484;9.726;2023-04-03T13:04:28;11.50;99.90
13052;DHT22;6592;47.484;9.726;2023-04-03T13:06:57;11.50;99.90
13052;DHT22;6592;47.484;9.726;2023-04-03T13:09:28;11.60;99.90
13052;DHT22;6592;47.484;9.726;2023-04-03T13:11:59;11.60;99.90
13052;DHT22;6592;47.484;9.726;2023-04-03T13:14:29;11.50;99.90
13052;DHT22;6592;47.484;9.726;2023-04-03T13:17:05;11.20;99.90
13052;DHT22;6592;47.484;9.726;2023-04-03T13:19:35;11.10;99.90
13052;DHT22;6592;47.484;9.726;2023-04-03T13:22:07;11.00;99.90
13052;DHT22;6592;47.484;9.726;2023-04-03T13:24:38;11.00;99.90
13052;DHT22;6592;47.484;9.726;2023-04-03T13:27:11;10.90;99.90
13052;DHT22;6592;47.484;9.726;2023-04-03T13:29:41;10.90;99.90
13052;DHT22;6592;47.484;9.726;2023-04-03T13:32:19;10.80;99.90
13052;DHT22;6592;47.484;9.726;2023-04-03T13:34:48;10.80;99.90
13052;DHT22;6592;47.484;9.726;2023-04-03T13:37:23;10.50;99.90
13052;DHT22;6592;47.484;9.726;2023-04-03T13:40:01;10.30;99.90
13052;DHT22;6592;47.484;9.726;2023-04-03T13:42:34;10.10;99.90
13052;DHT22;6592;47.484;9.726;2023-04-03T13:45:26;10.00;99.90
13052;DHT22;6592;47.484;9.726;2023-04-03T13:48:11;10.10;99.90
13052;DHT22;6592;47.484;9.726;2023-04-03T13:50:58;9.10;99.90
13052;DHT22;6592;47.484;9.726;2023-04-03T13:53:32;10.20;99.90
13052;DHT22;6592;47.484;9.726;2023-04-03T13:56:18;10.10;99.90
13052;DHT22;6592;47.484;9.726;2023-04-03T13:58:57;9.70;99.90
13052;DHT22;6592;47.484;9.726;2023-04-03T14:01:37;9.50;99.90
13052;DHT22;6592;47.484;9.726;2023-04-03T14:04:15;9.50;99.90
13052;DHT22;6592;47.484;9.726;2023-04-03T14:06:45;9.30;99.90
13052;DHT22;6592;47.484;9.726;2023-04-03T14:09:16;9.30;99.90
13052;DHT22;6592;47.484;9.726;2023-04-03T14:11:50;9.10;99.90
13052;DHT22;6592;47.484;9.726;2023-04-03T14:14:31;8.90;99.90
13052;DHT22;6592;47.484;9.726;2023-04-03T14:17:03;8.90;99.90
13052;DHT22;6592;47.484;9.726;2023-04-03T14:19:53;8.90;99.90
13052;DHT22;6592;47.484;9.726;2023-04-03T14:22:24;8.90;99.90
13052;DHT22;6592;47.484;9.726;2023-04-03T14:24:53;8.80;99.90
13052;DHT22;6592;47.484;9.726;2023-04-03T14:27:24;8.70;99.90
13052;DHT22;6592;47.484;9.726;2023-04-03T14:29:57;8.70;99.90
13052;DHT22;6592;47.484;9.726;2023-04-03T14:32:28;8.70;99.90
13052;DHT22;6592;47.484;9.726;2023-04-03T14:34:59;8.70;99.90
13052;DHT22;6592;47.484;9.726;2023-04-03T14:37:29;8.60;99.90
13052;DHT22;6592;47.484;9.726;2023-04-03T14:40:01;8.50;99.90
13052;DHT22;6592;47.484;9.726;2023-04-03T14:42:33;8.50;99.90
13052;DHT22;6592;47.484;9.726;2023-04-03T14:45:04;8.50;99.90
13052;DHT22;6592;47.484;9.726;2023-04-03T14:47:36;8.50;99.90
13052;DHT22;6592;47.484;9.726;2023-04-03T14:50:14;8.50;99.90
13052;DHT22;6592;47.484;9.726;2023-04-03T14:52:44;8.40;99.90
13052;DHT22;6592;47.484;9.726;2023-04-03T14:55:15;7.50;99.90
13052;DHT22;6592;47.484;9.726;2023-04-03T14:57:44;8.50;99.90
13052;DHT22;6592;47.484;9.726;2023-04-03T15:00:18;8.40;99.90
13052;DHT22;6592;47.484;9.726;2023-04-03T15:02:51;8.50;99.90
13052;DHT22;6592;47.484;9.726;2023-04-03T15:05:23;8.50;99.90
13052;DHT22;6592;47.484;9.726;2023-04-03T15:07:54;8.50;99.90
13052;DHT22;6592;47.484;9.726;2023-04-03T15:10:27;8.50;99.90
13052;DHT22;6592;47.484;9.726;2023-04-03T15:12:57;8.50;99.90
13052;DHT22;6592;47.484;9.726;2023-04-03T15:15:29;8.50;99.90
13052;DHT22;6592;47.484;9.726;2023-04-03T15:17:58;8.50;99.90
13052;DHT22;6592;47.484;9.726;2023-04-03T15:20:33;8.40;99.90
13052;DHT22;6592;47.484;9.726;2023-04-03T15:23:02;8.40;99.90
13052;DHT22;6592;47.484;9.726;2023-04-03T15:25:32;8.30;99.90
13052;DHT22;6592;47.484;9.726;2023-04-03T15:28:01;8.30;99.90
13052;DHT22;6592;47.484;9.726;2023-04-03T15:30:41;8.20;99.90
13052;DHT22;6592;47.484;9.726;2023-04-03T15:33:13;8.20;99.90
13052;DHT22;6592;47.484;9.726;2023-04-03T15:35:44;8.10;99.90
13052;DHT22;6592;47.484;9.726;2023-04-03T15:38:13;8.00;99.90
13052;DHT22;6592;47.484;9.726;2023-04-03T15:40:42;8.00;99.90
13052;DHT22;6592;47.484;9.726;2023-04-03T15:43:14;7.90;99.90
13052;DHT22;6592;47.484;9.726;2023-04-03T15:45:47;7.90;99.90
13052;DHT22;6592;47.484;9.726;2023-04-03T15:48:16;7.90;99.90
13052;DHT22;6592;47.484;9.726;2023-04-03T15:50:46;7.70;99.90
13052;DHT22;6592;47.484;9.726;2023-04-03T15:53:15;7.60;99.90
13052;DHT22;6592;47.484;9.726;2023-04-03T15:55:46;7.50;99.90
13052;DHT22;6592;47.484;9.726;2023-04-03T15:58:16;7.40;99.90
13052;DHT22;6592;47.484;9.726;2023-04-03T16:00:45;7.40;99.90
13052;DHT22;6592;47.484;9.726;2023-04-03T16:03:16;7.30;99.90
13052;DHT22;6592;47.484;9.726;2023-04-03T16:05:48;7.20;99.90
13052;DHT22;6592;47.484;9.726;2023-04-03T16:08:18;7.20;99.90
13052;DHT22;6592;47.484;9.726;2023-04-03T16:10:47;7.00;99.90
13052;DHT22;6592;47.484;9.726;2023-04-03T16:13:17;7.00;99.90
13052;DHT22;6592;47.484;9.726;2023-04-03T16:15:54;7.10;99.90
13052;DHT22;6592;47.484;9.726;2023-04-03T16:18:23;6.90;99.90
13052;DHT22;6592;47.484;9.726;2023-04-03T16:20:54;6.80;99.90
13052;DHT22;6592;47.484;9.726;2023-04-03T16:23:23;6.80;99.90
13052;DHT22;6592;47.484;9.726;2023-04-03T16:25:52;6.70;99.90
13052;DHT22;6592;47.484;9.726;2023-04-03T16:28:21;6.70;99.90
13052;DHT22;6592;47.484;9.726;2023-04-03T16:30:50;6.60;99.90
13052;DHT22;6592;47.484;9.726;2023-04-03T16:33:18;6.60;99.90
13052;DHT22;6592;47.484;9.726;2023-04-03T16:35:49;6.60;99.90
13052;DHT22;6592;47.484;9.726;2023-04-03T16:38:21;6.50;99.90
13052;DHT22;6592;47.484;9.726;2023-04-03T16:40:51;6.50;99.90
13052;DHT22;6592;47.484;9.726;2023-04-03T16:43:26;6.50;99.90
13052;DHT22;6592;47.484;9.726;2023-04-03T16:45:55;6.40;99.90
13052;DHT22;6592;47.484;9.726;2023-04-03T16:48:25;6.40;99.90
13052;DHT22;6592;47.484;9.726;2023-04-03T16:50:54;5.70;99.90
13052;DHT22;6592;47.484;9.726;2023-04-03T16:53:25;6.30;99.90
13052;DHT22;6592;47.484;9.726;2023-04-03T16:55:56;6.00;99.90
13052;DHT22;6592;47.484;9.726;2023-04-03T16:58:27;6.10;99.90
13052;DHT22;6592;47.484;9.726;2023-04-03T17:00:55;6.30;99.90